sensor_id;sensor_type;location;lat;lon;timestamp;pressure;altitude;pressure_sealevel;temperature
74043;BMP280;62384;53.600;10.040;2022-11-14T00:02:09;101939.16;;;9.68
74043;BMP280;62384;53.600;10.040;2022-11-14T00:04:34;101927.00;;;9.53
74043;BMP280;62384;53.600;10.040;2022-11-14T00:07:02;101916.75;;;9.55
74043;BMP280;62384;53.600;10.040;2022-11-14T00:09:30;101931.75;;;9.65
74043;BMP280;62384;53.600;10.040;2022-11-14T00:11:56;101928.75;;;9.58
74043;BMP280;62384;53.600;10.040;2022-11-14T00:14:21;101930.78;;;9.52
74043;BMP280;62384;53.600;10.040;2022-11-14T00:16:49;101923.84;;;9.51
74043;BMP280;62384;53.600;10.040;2022-11-14T00:19:15;101921.50;;;9.50
74043;BMP280;62384;53.600;10.040;2022-11-14T00:21:40;101914.66;;;9.43
74043;BMP280;62384;53.600;10.040;2022-11-14T00:24:08;101913.56;;;9.45
74043;BMP280;62384;53.600;10.040;2022-11-14T00:26:34;101900.16;;;9.45
74043;BMP280;62384;53.600;10.040;2022-11-14T00:28:59;101892.91;;;9.28
74043;BMP280;62384;53.600;10.040;2022-11-14T00:31:25;101894.69;;;9.50
74043;BMP280;62384;53.600;10.040;2022-11-14T00:33:50;101889.63;;;9.39
74043;BMP280;62384;53.600;10.040;2022-11-14T00:36:15;101895.13;;;9.43
74043;BMP280;62384;53.600;10.040;2022-11-14T00:38:44;101887.41;;;9.42
74043;BMP280;62384;53.600;10.040;2022-11-14T00:41:09;101884.59;;;9.47
74043;BMP280;62384;53.600;10.040;2022-11-14T00:43:38;101891.22;;;9.49
74043;BMP280;62384;53.600;10.040;2022-11-14T00:46:03;101886.44;;;9.37
74043;BMP280;62384;53.600;10.040;2022-11-14T00:48:32;101854.91;;;9.26
74043;BMP280;62384;53.600;10.040;2022-11-14T00:50:57;101877.94;;;9.35
74043;BMP280;62384;53.600;10.040;2022-11-14T00:53:22;101873.22;;;9.41
74043;BMP280;62384;53.600;10.040;2022-11-14T00:55:48;101877.31;;;9.38
74043;BMP280;62384;53.600;10.040;2022-11-14T00:58:13;101878.41;;;9.37
74043;BMP280;62384;53.600;10.040;2022-11-14T01:00:38;101870.84;;;9.22
74043;BMP280;62384;53.600;10.040;2022-11-14T01:03:04;101871.78;;;9.26
74043;BMP280;62384;53.600;10.040;2022-11-14T01:05:29;101869.88;;;9.27
74043;BMP280;62384;53.600;10.040;2022-11-14T01:07:54;101859.97;;;9.36
74043;BMP280;62384;53.600;10.040;2022-11-14T01:10:21;101852.38;;;9.21
74043;BMP280;62384;53.600;10.040;2022-11-14T01:12:47;101845.94;;;9.22
74043;BMP280;62384;53.600;10.040;2022-11-14T01:15:12;101851.13;;;9.18
74043;BMP280;62384;53.600;10.040;2022-11-14T01:17:38;101842.75;;;9.11
74043;BMP280;62384;53.600;10.040;2022-11-14T01:20:04;101856.78;;;9.25
74043;BMP280;62384;53.600;10.040;2022-11-14T01:22:30;101845.28;;;9.25
74043;BMP280;62384;53.600;10.040;2022-11-14T01:24:55;101856.00;;;9.25
74043;BMP280;62384;53.600;10.040;2022-11-14T01:27:31;101849.69;;;9.21
74043;BMP280;62384;53.600;10.040;2022-11-14T01:30:09;101854.59;;;9.19
74043;BMP280;62384;53.600;10.040;2022-11-14T01:32:34;101829.19;;;9.08
74043;BMP280;62384;53.600;10.040;2022-11-14T01:35:00;101833.94;;;9.11
74043;BMP280;62384;53.600;10.040;2022-11-14T01:37:25;101837.09;;;9.13
74043;BMP280;62384;53.600;10.040;2022-11-14T01:39:50;101821.16;;;8.99
74043;BMP280;62384;53.600;10.040;2022-11-14T01:42:16;101829.84;;;9.05
74043;BMP280;62384;53.600;10.040;2022-11-14T01:44:51;101820.69;;;9.06
74043;BMP280;62384;53.600;10.040;2022-11-14T01:47:24;101805.06;;;8.99
74043;BMP280;62384;53.600;10.040;2022-11-14T01:49:57;101806.97;;;8.99
74043;BMP280;62384;53.600;10.040;2022-11-14T01:52:27;101799.22;;;8.97
74043;BMP280;62384;53.600;10.040;2022-11-14T01:54:59;101801.47;;;8.95
74043;BMP280;62384;53.600;10.040;2022-11-14T01:57:33;101789.31;;;8.98
74043;BMP280;62384;53.600;10.040;2022-11-14T02:00:03;101790.59;;;9.09
74043;BMP280;62384;53.600;10.040;2022-11-14T02:02:29;101779.09;;;9.00
74043;BMP280;62384;53.600;10.040;2022-11-14T02:05:02;101779.72;;;9.05
74043;BMP280;62384;53.600;10.040;2022-11-14T02:07:31;101773.91;;;9.03
74043;BMP280;62384;53.600;10.040;2022-11-14T02:10:00;101775.47;;;9.04
74043;BMP280;62384;53.600;10.040;2022-11-14T02:12:28;101762.84;;;9.05
74043;BMP280;62384;53.600;10.040;2022-11-14T02:14:55;101771.84;;;9.09
74043;BMP280;62384;53.600;10.040;2022-11-14T02:17:26;101763.31;;;9.07
74043;BMP280;62384;53.600;10.040;2022-11-14T02:22:27;101741.88;;;8.98
74043;BMP280;62384;53.600;10.040;2022-11-14T02:24:52;101730.88;;;8.83
74043;BMP280;62384;53.600;10.040;2022-11-14T02:27:18;101746.78;;;8.96
74043;BMP280;62384;53.600;10.040;2022-11-14T02:29:43;101739.19;;;8.98
74043;BMP280;62384;53.600;10.040;2022-11-14T02:35:33;101740.78;;;8.99
74043;BMP280;62384;53.600;10.040;2022-11-14T02:38:03;101735.44;;;8.99
74043;BMP280;62384;53.600;10.040;2022-11-14T02:40:28;101739.22;;;8.90
74043;BMP280;62384;53.600;10.040;2022-11-14T02:42:53;101723.94;;;8.90
74043;BMP280;62384;53.600;10.040;2022-11-14T02:45:21;101727.38;;;8.82
74043;BMP280;62384;53.600;10.040;2022-11-14T02:47:51;101730.06;;;8.99
74043;BMP280;62384;53.600;10.040;2022-11-14T02:50:20;101713.50;;;8.97
74043;BMP280;62384;53.600;10.040;2022-11-14T02:52:52;101714.28;;;8.98
74043;BMP280;62384;53.600;10.040;2022-11-14T02:55:19;101714.31;;;9.06
74043;BMP280;62384;53.600;10.040;2022-11-14T02:57:47;101687.38;;;8.77
74043;BMP280;62384;53.600;10.040;2022-11-14T03:00:19;101713.09;;;9.04
74043;BMP280;62384;53.600;10.040;2022-11-14T03:02:52;101721.91;;;9.13
74043;BMP280;62384;53.600;10.040;2022-11-14T03:05:20;101706.91;;;8.95
74043;BMP280;62384;53.600;10.040;2022-11-14T03:07:52;101695.56;;;8.89
74043;BMP280;62384;53.600;10.040;2022-11-14T03:10:23;101695.56;;;8.89
74043;BMP280;62384;53.600;10.040;2022-11-14T03:13:07;101685.16;;;9.05
74043;BMP280;62384;53.600;10.040;2022-11-14T03:16:06;101685.16;;;9.05
74043;BMP280;62384;53.600;10.040;2022-11-14T03:18:33;101686.41;;;8.99
74043;BMP280;62384;53.600;10.040;2022-11-14T03:21:16;101680.28;;;9.07
74043;BMP280;62384;53.600;10.040;2022-11-14T03:24:07;101675.41;;;9.00
74043;BMP280;62384;53.600;10.040;2022-11-14T03:26:35;101659.81;;;8.85
74043;BMP280;62384;53.600;10.040;2022-11-14T03:29:03;101650.53;;;8.83
74043;BMP280;62384;53.600;10.040;2022-11-14T03:31:28;101659.66;;;8.90
74043;BMP280;62384;53.600;10.040;2022-11-14T03:33:57;101663.28;;;9.03
74043;BMP280;62384;53.600;10.040;2022-11-14T03:36:22;101649.72;;;8.82
74043;BMP280;62384;53.600;10.040;2022-11-14T03:38:48;101660.44;;;8.99
74043;BMP280;62384;53.600;10.040;2022-11-14T03:41:13;101653.00;;;8.88
74043;BMP280;62384;53.600;10.040;2022-11-14T03:43:38;101663.25;;;8.94
74043;BMP280;62384;53.600;10.040;2022-11-14T03:46:04;101660.28;;;8.87
74043;BMP280;62384;53.600;10.040;2022-11-14T03:48:41;101646.09;;;9.04
74043;BMP280;62384;53.600;10.040;2022-11-14T03:51:10;101643.44;;;8.95
74043;BMP280;62384;53.600;10.040;2022-11-14T03:53:44;101648.78;;;8.95
74043;BMP280;62384;53.600;10.040;2022-11-14T03:56:12;101640.75;;;9.04
74043;BMP280;62384;53.600;10.040;2022-11-14T03:58:44;101648.13;;;8.98
74043;BMP280;62384;53.600;10.040;2022-11-14T04:01:09;101648.78;;;8.95
74043;BMP280;62384;53.600;10.040;2022-11-14T04:03:47;101637.28;;;8.95
74043;BMP280;62384;53.600;10.040;2022-11-14T04:06:12;101646.09;;;8.87
74043;BMP280;62384;53.600;10.040;2022-11-14T04:08:40;101642.78;;;8.98
74043;BMP280;62384;53.600;10.040;2022-11-14T04:11:08;101641.97;;;9.06
74043;BMP280;62384;53.600;10.040;2022-11-14T04:13:34;101645.63;;;9.02
74043;BMP280;62384;53.600;10.040;2022-11-14T04:15:59;101625.13;;;8.89
74043;BMP280;62384;53.600;10.040;2022-11-14T04:18:25;101639.81;;;8.83
74043;BMP280;62384;53.600;10.040;2022-11-14T04:20:56;101636.03;;;8.92
74043;BMP280;62384;53.600;10.040;2022-11-14T04:23:25;101635.72;;;8.85
74043;BMP280;62384;53.600;10.040;2022-11-14T04:25:59;101628.28;;;8.91
74043;BMP280;62384;53.600;10.040;2022-11-14T04:28:30;101622.16;;;8.82
74043;BMP280;62384;53.600;10.040;2022-11-14T04:30:56;101623.28;;;8.72
74043;BMP280;62384;53.600;10.040;2022-11-14T04:33:25;101591.00;;;8.60
74043;BMP280;62384;53.600;10.040;2022-11-14T04:35:53;101614.63;;;8.84
74043;BMP280;62384;53.600;10.040;2022-11-14T04:38:19;101611.78;;;8.80
74043;BMP280;62384;53.600;10.040;2022-11-14T04:40:50;101603.41;;;8.90
74043;BMP280;62384;53.600;10.040;2022-11-14T04:43:21;101606.84;;;8.99
74043;BMP280;62384;53.600;10.040;2022-11-14T04:45:46;101609.72;;;8.77
74043;BMP280;62384;53.600;10.040;2022-11-14T04:48:15;101607.69;;;8.83
74043;BMP280;62384;53.600;10.040;2022-11-14T04:50:40;101603.59;;;8.77
74043;BMP280;62384;53.600;10.040;2022-11-14T04:53:05;101556.97;;;8.52
74043;BMP280;62384;53.600;10.040;2022-11-14T04:55:31;101611.78;;;8.80
74043;BMP280;62384;53.600;10.040;2022-11-14T04:57:57;101598.72;;;8.70
74043;BMP280;62384;53.600;10.040;2022-11-14T05:00:23;101594.13;;;8.79
74043;BMP280;62384;53.600;10.040;2022-11-14T05:02:49;101599.00;;;8.68
74043;BMP280;62384;53.600;10.040;2022-11-14T05:05:14;101592.06;;;8.67
74043;BMP280;62384;53.600;10.040;2022-11-14T05:07:40;101594.16;;;8.70
74043;BMP280;62384;53.600;10.040;2022-11-14T05:10:06;101593.34;;;8.70
74043;BMP280;62384;53.600;10.040;2022-11-14T05:12:39;101587.53;;;8.77
74043;BMP280;62384;53.600;10.040;2022-11-14T05:15:07;101579.97;;;8.70
74043;BMP280;62384;53.600;10.040;2022-11-14T05:17:38;101574.78;;;8.65
74043;BMP280;62384;53.600;10.040;2022-11-14T05:20:06;101573.50;;;8.71
74043;BMP280;62384;53.600;10.040;2022-11-14T05:22:32;101574.59;;;8.70
74043;BMP280;62384;53.600;10.040;2022-11-14T05:24:57;101568.63;;;8.73
74043;BMP280;62384;53.600;10.040;2022-11-14T05:27:22;101573.31;;;8.67
74043;BMP280;62384;53.600;10.040;2022-11-14T05:29:48;101567.56;;;8.57
74043;BMP280;62384;53.600;10.040;2022-11-14T05:32:13;101562.63;;;8.59
74043;BMP280;62384;53.600;10.040;2022-11-14T05:34:38;101560.75;;;8.51
74043;BMP280;62384;53.600;10.040;2022-11-14T05:37:04;101554.63;;;8.50
74043;BMP280;62384;53.600;10.040;2022-11-14T05:39:29;101555.41;;;8.51
74043;BMP280;62384;53.600;10.040;2022-11-14T05:41:55;101555.41;;;8.51
74043;BMP280;62384;53.600;10.040;2022-11-14T05:44:20;101559.06;;;8.46
74043;BMP280;62384;53.600;10.040;2022-11-14T05:46:46;101552.25;;;8.49
74043;BMP280;62384;53.600;10.040;2022-11-14T05:49:11;101555.56;;;8.54
74043;BMP280;62384;53.600;10.040;2022-11-14T05:51:36;101549.88;;;8.64
74043;BMP280;62384;53.600;10.040;2022-11-14T05:54:02;101554.47;;;8.64
74043;BMP280;62384;53.600;10.040;2022-11-14T05:56:27;101557.78;;;8.52
74043;BMP280;62384;53.600;10.040;2022-11-14T05:58:52;101556.69;;;8.45
74043;BMP280;62384;53.600;10.040;2022-11-14T06:01:18;101556.19;;;8.51
74043;BMP280;62384;53.600;10.040;2022-11-14T06:03:45;101548.94;;;8.52
74043;BMP280;62384;53.600;10.040;2022-11-14T06:06:17;101550.53;;;8.53
74043;BMP280;62384;53.600;10.040;2022-11-14T06:08:43;101549.59;;;8.49
74043;BMP280;62384;53.600;10.040;2022-11-14T06:11:17;101548.34;;;8.46
74043;BMP280;62384;53.600;10.040;2022-11-14T06:13:43;101550.03;;;8.51
74043;BMP280;62384;53.600;10.040;2022-11-14T06:16:12;101553.03;;;8.49
74043;BMP280;62384;53.600;10.040;2022-11-14T06:18:38;101549.13;;;8.30
74043;BMP280;62384;53.600;10.040;2022-11-14T06:21:06;101558.09;;;8.42
74043;BMP280;62384;53.600;10.040;2022-11-14T06:23:32;101554.16;;;8.31
74043;BMP280;62384;53.600;10.040;2022-11-14T06:25:59;101556.84;;;8.40
74043;BMP280;62384;53.600;10.040;2022-11-14T06:28:24;101566.59;;;8.36
74043;BMP280;62384;53.600;10.040;2022-11-14T06:30:50;101565.00;;;8.35
74043;BMP280;62384;53.600;10.040;2022-11-14T06:33:15;101556.22;;;8.26
74043;BMP280;62384;53.600;10.040;2022-11-14T06:35:41;101553.22;;;8.27
74043;BMP280;62384;53.600;10.040;2022-11-14T06:38:09;101555.56;;;8.29
74043;BMP280;62384;53.600;10.040;2022-11-14T06:40:35;101555.41;;;8.17
74043;BMP280;62384;53.600;10.040;2022-11-14T06:43:03;101549.78;;;8.27
74043;BMP280;62384;53.600;10.040;2022-11-14T06:45:31;101552.56;;;8.22
74043;BMP280;62384;53.600;10.040;2022-11-14T06:47:59;101545.66;;;8.29
74043;BMP280;62384;53.600;10.040;2022-11-14T06:50:24;101549.13;;;8.30
74043;BMP280;62384;53.600;10.040;2022-11-14T06:52:52;101555.56;;;8.37
74043;BMP280;62384;53.600;10.040;2022-11-14T06:55:20;101557.59;;;8.32
74043;BMP280;62384;53.600;10.040;2022-11-14T06:57:52;101543.59;;;8.35
74043;BMP280;62384;53.600;10.040;2022-11-14T07:00:20;101550.22;;;8.29
74043;BMP280;62384;53.600;10.040;2022-11-14T07:02:52;101543.31;;;8.36
74043;BMP280;62384;53.600;10.040;2022-11-14T07:05:17;101549.47;;;8.37
74043;BMP280;62384;53.600;10.040;2022-11-14T07:07:43;101550.09;;;8.34
74043;BMP280;62384;53.600;10.040;2022-11-14T07:10:11;101552.09;;;8.28
74043;BMP280;62384;53.600;10.040;2022-11-14T07:12:39;101547.22;;;8.22
74043;BMP280;62384;53.600;10.040;2022-11-14T07:15:05;101553.53;;;8.26
74043;BMP280;62384;53.600;10.040;2022-11-14T07:17:33;101551.78;;;8.30
74043;BMP280;62384;53.600;10.040;2022-11-14T07:20:02;101541.09;;;8.30
74043;BMP280;62384;53.600;10.040;2022-11-14T07:22:27;101557.31;;;8.25
74043;BMP280;62384;53.600;10.040;2022-11-14T07:24:53;101557.00;;;8.26
74043;BMP280;62384;53.600;10.040;2022-11-14T07:27:20;101551.00;;;8.29
74043;BMP280;62384;53.600;10.040;2022-11-14T07:29:48;101547.84;;;8.27
74043;BMP280;62384;53.600;10.040;2022-11-14T07:32:14;101561.56;;;8.26
74043;BMP280;62384;53.600;10.040;2022-11-14T07:34:39;101571.47;;;8.42
74043;BMP280;62384;53.600;10.040;2022-11-14T07:37:07;101565.47;;;8.28
74043;BMP280;62384;53.600;10.040;2022-11-14T07:39:37;101568.31;;;8.32
74043;BMP280;62384;53.600;10.040;2022-11-14T07:42:10;101568.31;;;8.23
74043;BMP280;62384;53.600;10.040;2022-11-14T07:44:36;101557.91;;;8.22
74043;BMP280;62384;53.600;10.040;2022-11-14T07:47:11;101513.69;;;8.07
74043;BMP280;62384;53.600;10.040;2022-11-14T07:49:42;101559.03;;;8.29
74043;BMP280;62384;53.600;10.040;2022-11-14T07:52:07;101545.97;;;8.19
74043;BMP280;62384;53.600;10.040;2022-11-14T07:54:32;101534.31;;;8.15
74043;BMP280;62384;53.600;10.040;2022-11-14T07:57:00;101536.03;;;8.28
74043;BMP280;62384;53.600;10.040;2022-11-14T07:59:29;101501.41;;;8.06
74043;BMP280;62384;53.600;10.040;2022-11-14T08:01:55;101547.88;;;8.36
74043;BMP280;62384;53.600;10.040;2022-11-14T08:04:20;101550.88;;;8.34
74043;BMP280;62384;53.600;10.040;2022-11-14T08:06:45;101557.94;;;8.39
74043;BMP280;62384;53.600;10.040;2022-11-14T08:09:11;101543.59;;;8.35
74043;BMP280;62384;53.600;10.040;2022-11-14T08:11:36;101536.69;;;8.25
74043;BMP280;62384;53.600;10.040;2022-11-14T08:14:21;101551.47;;;8.48
74043;BMP280;62384;53.600;10.040;2022-11-14T08:16:47;101538.25;;;8.35
74043;BMP280;62384;53.600;10.040;2022-11-14T08:19:21;101534.31;;;8.49
74043;BMP280;62384;53.600;10.040;2022-11-14T08:21:47;101531.34;;;8.34
74043;BMP280;62384;53.600;10.040;2022-11-14T08:24:12;101534.81;;;8.34
74043;BMP280;62384;53.600;10.040;2022-11-14T08:26:38;101521.25;;;8.22
74043;BMP280;62384;53.600;10.040;2022-11-14T08:29:03;101524.88;;;8.35
74043;BMP280;62384;53.600;10.040;2022-11-14T08:31:29;101516.41;;;8.24
74043;BMP280;62384;53.600;10.040;2022-11-14T08:33:54;101527.09;;;8.33
74043;BMP280;62384;53.600;10.040;2022-11-14T08:36:22;101538.88;;;8.32
74043;BMP280;62384;53.600;10.040;2022-11-14T08:38:48;101534.94;;;8.12
74043;BMP280;62384;53.600;10.040;2022-11-14T08:41:16;101531.97;;;8.31
74043;BMP280;62384;53.600;10.040;2022-11-14T08:43:44;101543.94;;;8.33
74043;BMP280;62384;53.600;10.040;2022-11-14T08:46:10;101542.84;;;8.34
74043;BMP280;62384;53.600;10.040;2022-11-14T08:48:35;101550.53;;;8.36
74043;BMP280;62384;53.600;10.040;2022-11-14T08:51:05;101546.44;;;8.55
74043;BMP280;62384;53.600;10.040;2022-11-14T08:53:30;101530.38;;;8.38
74043;BMP280;62384;53.600;10.040;2022-11-14T08:55:56;101552.41;;;8.52
74043;BMP280;62384;53.600;10.040;2022-11-14T08:58:21;101562.53;;;8.47
74043;BMP280;62384;53.600;10.040;2022-11-14T09:00:51;101556.84;;;8.57
74043;BMP280;62384;53.600;10.040;2022-11-14T09:03:20;101546.59;;;8.50
74043;BMP280;62384;53.600;10.040;2022-11-14T09:05:52;101539.19;;;8.64
74043;BMP280;62384;53.600;10.040;2022-11-14T09:08:21;101528.81;;;8.54
74043;BMP280;62384;53.600;10.040;2022-11-14T09:10:47;101537.94;;;8.53
74043;BMP280;62384;53.600;10.040;2022-11-14T09:13:12;101534.31;;;8.49
74043;BMP280;62384;53.600;10.040;2022-11-14T09:15:38;101528.94;;;8.58
74043;BMP280;62384;53.600;10.040;2022-11-14T09:18:11;101545.47;;;8.77
74043;BMP280;62384;53.600;10.040;2022-11-14T09:20:37;101535.53;;;8.69
74043;BMP280;62384;53.600;10.040;2022-11-14T09:23:03;101528.19;;;8.66
74043;BMP280;62384;53.600;10.040;2022-11-14T09:25:29;101531.78;;;8.61
74043;BMP280;62384;53.600;10.040;2022-11-14T09:27:55;101532.72;;;8.65
74043;BMP280;62384;53.600;10.040;2022-11-14T09:30:21;101536.97;;;8.58
74043;BMP280;62384;53.600;10.040;2022-11-14T09:33:01;101529.91;;;8.53
74043;BMP280;62384;53.600;10.040;2022-11-14T09:35:27;101528.94;;;8.58
74043;BMP280;62384;53.600;10.040;2022-11-14T09:38:00;101529.44;;;8.60
74043;BMP280;62384;53.600;10.040;2022-11-14T09:40:30;101527.41;;;8.57
74043;BMP280;62384;53.600;10.040;2022-11-14T09:43:18;101515.75;;;8.53
74043;BMP280;62384;53.600;10.040;2022-11-14T09:45:50;101521.56;;;8.63
74043;BMP280;62384;53.600;10.040;2022-11-14T09:48:25;101505.97;;;8.65
74043;BMP280;62384;53.600;10.040;2022-11-14T09:53:51;101513.50;;;8.72
74043;BMP280;62384;53.600;10.040;2022-11-14T09:56:21;101511.28;;;8.74
74043;BMP280;62384;53.600;10.040;2022-11-14T09:58:50;101504.88;;;8.66
74043;BMP280;62384;53.600;10.040;2022-11-14T10:01:36;101518.84;;;8.81
74043;BMP280;62384;53.600;10.040;2022-11-14T10:04:43;101526.84;;;8.89
74043;BMP280;62384;53.600;10.040;2022-11-14T10:10:40;101524.03;;;8.77
74043;BMP280;62384;53.600;10.040;2022-11-14T10:13:23;101524.00;;;8.94
74043;BMP280;62384;53.600;10.040;2022-11-14T10:21:45;101519.75;;;8.93
74043;BMP280;62384;53.600;10.040;2022-11-14T10:29:51;101500.78;;;9.07
74043;BMP280;62384;53.600;10.040;2022-11-14T10:32:34;101492.75;;;9.07
74043;BMP280;62384;53.600;10.040;2022-11-14T10:35:13;101492.06;;;9.18
74043;BMP280;62384;53.600;10.040;2022-11-14T10:42:47;101489.81;;;9.29
74043;BMP280;62384;53.600;10.040;2022-11-14T10:45:41;101496.56;;;9.35
74043;BMP280;62384;53.600;10.040;2022-11-14T10:48:12;101495.28;;;9.41
74043;BMP280;62384;53.600;10.040;2022-11-14T10:50:48;101492.94;;;9.39
74043;BMP280;62384;53.600;10.040;2022-11-14T10:55:56;101488.75;;;9.51
74043;BMP280;62384;53.600;10.040;2022-11-14T10:58:25;101485.97;;;9.38
74043;BMP280;62384;53.600;10.040;2022-11-14T11:00:50;101459.38;;;9.33
74043;BMP280;62384;53.600;10.040;2022-11-14T11:03:16;101472.50;;;9.47
74043;BMP280;62384;53.600;10.040;2022-11-14T11:05:50;101478.97;;;9.75
74043;BMP280;62384;53.600;10.040;2022-11-14T11:08:20;101473.53;;;9.84
74043;BMP280;62384;53.600;10.040;2022-11-14T11:11:11;101486.53;;;9.94
74043;BMP280;62384;53.600;10.040;2022-11-14T11:13:57;101475.63;;;9.99
74043;BMP280;62384;53.600;10.040;2022-11-14T11:16:25;101476.88;;;10.34
74043;BMP280;62384;53.600;10.040;2022-11-14T11:18:51;101482.25;;;10.46
74043;BMP280;62384;53.600;10.040;2022-11-14T11:21:21;101483.91;;;10.84
74043;BMP280;62384;53.600;10.040;2022-11-14T11:23:51;101476.19;;;11.30
74043;BMP280;62384;53.600;10.040;2022-11-14T11:26:25;101468.91;;;11.71
74043;BMP280;62384;53.600;10.040;2022-11-14T11:34:11;101490.81;;;11.97
74043;BMP280;62384;53.600;10.040;2022-11-14T11:36:42;101503.28;;;12.33
74043;BMP280;62384;53.600;10.040;2022-11-14T11:39:21;101486.88;;;11.94
74043;BMP280;62384;53.600;10.040;2022-11-14T11:41:51;101481.66;;;12.01
74043;BMP280;62384;53.600;10.040;2022-11-14T11:44:19;101469.47;;;11.92
74043;BMP280;62384;53.600;10.040;2022-11-14T11:46:54;101471.44;;;11.79
74043;BMP280;62384;53.600;10.040;2022-11-14T11:49:38;101460.22;;;12.05
74043;BMP280;62384;53.600;10.040;2022-11-14T11:57:35;101435.78;;;11.55
74043;BMP280;62384;53.600;10.040;2022-11-14T12:00:18;101423.34;;;11.50
74043;BMP280;62384;53.600;10.040;2022-11-14T12:02:49;101424.03;;;11.47
74043;BMP280;62384;53.600;10.040;2022-11-14T12:05:24;101403.88;;;11.41
74043;BMP280;62384;53.600;10.040;2022-11-14T12:07:59;101434.47;;;11.36
74043;BMP280;62384;53.600;10.040;2022-11-14T12:10:26;101434.38;;;11.45
74043;BMP280;62384;53.600;10.040;2022-11-14T12:13:31;101461.84;;;11.66
74043;BMP280;62384;53.600;10.040;2022-11-14T12:22:04;101474.06;;;11.76
74043;BMP280;62384;53.600;10.040;2022-11-14T12:24:45;101479.91;;;11.66
74043;BMP280;62384;53.600;10.040;2022-11-14T12:30:17;101479.78;;;11.74
74043;BMP280;62384;53.600;10.040;2022-11-14T12:32:48;101499.00;;;11.88
74043;BMP280;62384;53.600;10.040;2022-11-14T12:35:34;101495.81;;;11.98
74043;BMP280;62384;53.600;10.040;2022-11-14T12:38:04;101473.75;;;11.93
74043;BMP280;62384;53.600;10.040;2022-11-14T12:40:54;101481.75;;;12.05
74043;BMP280;62384;53.600;10.040;2022-11-14T12:43:43;101479.72;;;12.14
74043;BMP280;62384;53.600;10.040;2022-11-14T12:46:10;101468.28;;;12.17
74043;BMP280;62384;53.600;10.040;2022-11-14T12:48:38;101464.19;;;12.23
74043;BMP280;62384;53.600;10.040;2022-11-14T12:53:52;101455.75;;;12.25
74043;BMP280;62384;53.600;10.040;2022-11-14T13:04:58;101459.06;;;11.90
74043;BMP280;62384;53.600;10.040;2022-11-14T13:10:29;101438.88;;;11.96
74043;BMP280;62384;53.600;10.040;2022-11-14T13:15:55;101419.28;;;11.56
74043;BMP280;62384;53.600;10.040;2022-11-14T13:27:26;101409.63;;;11.27
74043;BMP280;62384;53.600;10.040;2022-11-14T13:29:52;101400.00;;;11.26
74043;BMP280;62384;53.600;10.040;2022-11-14T13:38:49;101408.19;;;11.30
74043;BMP280;62384;53.600;10.040;2022-11-14T13:41:10;101399.00;;;11.31
74043;BMP280;62384;53.600;10.040;2022-11-14T13:47:04;101394.72;;;11.30
74043;BMP280;62384;53.600;10.040;2022-11-14T13:52:33;101416.59;;;11.28
74043;BMP280;62384;53.600;10.040;2022-11-14T13:55:00;101392.75;;;11.15
74043;BMP280;62384;53.600;10.040;2022-11-14T13:57:44;101397.44;;;11.18
74043;BMP280;62384;53.600;10.040;2022-11-14T14:00:21;101390.88;;;11.15
74043;BMP280;62384;53.600;10.040;2022-11-14T14:11:40;101363.88;;;11.12
74043;BMP280;62384;53.600;10.040;2022-11-14T14:17:08;101362.78;;;11.01
74043;BMP280;62384;53.600;10.040;2022-11-14T14:27:58;101361.75;;;10.93
74043;BMP280;62384;53.600;10.040;2022-11-14T14:30:31;101364.03;;;10.91
74043;BMP280;62384;53.600;10.040;2022-11-14T14:35:32;101358.66;;;10.91
74043;BMP280;62384;53.600;10.040;2022-11-14T14:37:58;101363.25;;;10.78
74043;BMP280;62384;53.600;10.040;2022-11-14T14:40:26;101361.44;;;10.83
74043;BMP280;62384;53.600;10.040;2022-11-14T14:42:53;101355.94;;;10.79
74043;BMP280;62384;53.600;10.040;2022-11-14T14:45:20;101350.50;;;10.75
74043;BMP280;62384;53.600;10.040;2022-11-14T14:47:48;101327.53;;;10.78
74043;BMP280;62384;53.600;10.040;2022-11-14T14:52:45;101315.91;;;10.50
74043;BMP280;62384;53.600;10.040;2022-11-14T14:55:23;101322.41;;;10.61
74043;BMP280;62384;53.600;10.040;2022-11-14T14:57:49;101319.25;;;10.47
74043;BMP280;62384;53.600;10.040;2022-11-14T15:00:21;101325.66;;;10.54
74043;BMP280;62384;53.600;10.040;2022-11-14T15:02:48;101312.13;;;10.51
74043;BMP280;62384;53.600;10.040;2022-11-14T15:05:26;101311.22;;;10.47
74043;BMP280;62384;53.600;10.040;2022-11-14T15:07:59;101300.59;;;10.38
74043;BMP280;62384;53.600;10.040;2022-11-14T15:10:29;101313.66;;;10.40
74043;BMP280;62384;53.600;10.040;2022-11-14T15:12:55;101300.25;;;10.40
74043;BMP280;62384;53.600;10.040;2022-11-14T15:15:21;101304.06;;;10.39
74043;BMP280;62384;53.600;10.040;2022-11-14T15:17:51;101295.22;;;10.38
74043;BMP280;62384;53.600;10.040;2022-11-14T15:20:28;101298.47;;;10.32
74043;BMP280;62384;53.600;10.040;2022-11-14T15:23:24;101287.28;;;10.18
74043;BMP280;62384;53.600;10.040;2022-11-14T15:26:08;101291.06;;;10.17
74043;BMP280;62384;53.600;10.040;2022-11-14T15:28:41;101287.38;;;10.21
74043;BMP280;62384;53.600;10.040;2022-11-14T15:31:15;101242.88;;;9.84
74043;BMP280;62384;53.600;10.040;2022-11-14T15:33:41;101277.09;;;9.99
74043;BMP280;62384;53.600;10.040;2022-11-14T15:36:12;101265.91;;;9.97
74043;BMP280;62384;53.600;10.040;2022-11-14T15:38:38;101272.28;;;9.92
74043;BMP280;62384;53.600;10.040;2022-11-14T15:41:24;101270.59;;;10.00
74043;BMP280;62384;53.600;10.040;2022-11-14T15:43:56;101274.72;;;9.97
74043;BMP280;62384;53.600;10.040;2022-11-14T15:46:42;101271.28;;;9.85
74043;BMP280;62384;53.600;10.040;2022-11-14T15:52:00;101274.97;;;9.92
74043;BMP280;62384;53.600;10.040;2022-11-14T15:54:41;101267.34;;;9.82
74043;BMP280;62384;53.600;10.040;2022-11-14T15:57:14;101260.66;;;9.88
74043;BMP280;62384;53.600;10.040;2022-11-14T15:59:41;101256.94;;;9.81
74043;BMP280;62384;53.600;10.040;2022-11-14T16:02:11;101257.19;;;9.76
74043;BMP280;62384;53.600;10.040;2022-11-14T16:04:39;101257.03;;;9.72
74043;BMP280;62384;53.600;10.040;2022-11-14T16:07:05;101240.72;;;9.65